sensor_id;sensor_type;location;lat;lon;timestamp;P1;durP1;ratioP1;P2;durP2;ratioP2
53939;SDS011;39850;43.324;21.916;2023-03-23T00:04:37;48.0;;;43.0;;
53939;SDS011;39850;43.324;21.916;2023-03-23T00:09:15;48.0;;;43.0;;
53939;SDS011;39850;43.324;21.916;2023-03-23T00:46:12;72.0;;;59.0;;
53939;SDS011;39850;43.324;21.916;2023-03-23T00:50:51;72.0;;;59.0;;
53939;SDS011;39850;43.324;21.916;2023-03-23T00:55:28;64.0;;;54.0;;
53939;SDS011;39850;43.324;21.916;2023-03-23T01:00:09;64.0;;;54.0;;
53939;SDS011;39850;43.324;21.916;2023-03-23T01:04:46;63.0;;;53.0;;
53939;SDS011;39850;43.324;21.916;2023-03-23T01:09:22;63.0;;;53.0;;
53939;SDS011;39850;43.324;21.916;2023-03-23T01:13:59;60.0;;;51.0;;
53939;SDS011;39850;43.324;21.916;2023-03-23T01:18:37;60.0;;;51.0;;
53939;SDS011;39850;43.324;21.916;2023-03-23T01:23:16;63.0;;;53.0;;
53939;SDS011;39850;43.324;21.916;2023-03-23T01:27:52;63.0;;;53.0;;
53939;SDS011;39850;43.324;21.916;2023-03-23T02:05:33;52.0;;;49.0;;
53939;SDS011;39850;43.324;21.916;2023-03-23T02:10:13;52.0;;;49.0;;
53939;SDS011;39850;43.324;21.916;2023-03-23T02:14:50;52.0;;;48.0;;
53939;SDS011;39850;43.324;21.916;2023-03-23T02:20:27;52.0;;;48.0;;
53939;SDS011;39850;43.324;21.916;2023-03-23T02:26:20;52.0;;;48.0;;
53939;SDS011;39850;43.324;21.916;2023-03-23T02:32:31;50.0;;;46.0;;
53939;SDS011;39850;43.324;21.916;2023-03-23T02:39:07;50.0;;;46.0;;
53939;SDS011;39850;43.324;21.916;2023-03-23T02:44:03;48.0;;;45.0;;
53939;SDS011;39850;43.324;21.916;2023-03-23T02:48:53;48.0;;;45.0;;
53939;SDS011;39850;43.324;21.916;2023-03-23T03:32:47;35.0;;;32.0;;
53939;SDS011;39850;43.324;21.916;2023-03-23T03:37:27;35.0;;;32.0;;
53939;SDS011;39850;43.324;21.916;2023-03-23T03:42:05;35.0;;;32.0;;
53939;SDS011;39850;43.324;21.916;2023-03-23T03:46:43;32.0;;;30.0;;
53939;SDS011;39850;43.324;21.916;2023-03-23T03:51:20;32.0;;;30.0;;
53939;SDS011;39850;43.324;21.916;2023-03-23T03:55:56;32.0;;;30.0;;
53939;SDS011;39850;43.324;21.916;2023-03-23T04:00:33;32.0;;;30.0;;
53939;SDS011;39850;43.324;21.916;2023-03-23T04:05:10;29.0;;;28.0;;
53939;SDS011;39850;43.324;21.916;2023-03-23T04:09:48;29.0;;;28.0;;
53939;SDS011;39850;43.324;21.916;2023-03-23T04:46:45;21.0;;;20.0;;
53939;SDS011;39850;43.324;21.916;2023-03-23T04:51:21;21.0;;;20.0;;
53939;SDS011;39850;43.324;21.916;2023-03-23T04:55:58;22.0;;;21.0;;
53939;SDS011;39850;43.324;21.916;2023-03-23T05:00:36;22.0;;;21.0;;
53939;SDS011;39850;43.324;21.916;2023-03-23T05:05:15;24.0;;;22.0;;
53939;SDS011;39850;43.324;21.916;2023-03-23T05:09:51;24.0;;;22.0;;
53939;SDS011;39850;43.324;21.916;2023-03-23T05:14:27;27.0;;;23.0;;
53939;SDS011;39850;43.324;21.916;2023-03-23T05:19:04;27.0;;;23.0;;
53939;SDS011;39850;43.324;21.916;2023-03-23T05:23:41;30.0;;;24.0;;
53939;SDS011;39850;43.324;21.916;2023-03-23T05:28:18;30.0;;;24.0;;
53939;SDS011;39850;43.324;21.916;2023-03-23T06:05:13;27.0;;;25.0;;
53939;SDS011;39850;43.324;21.916;2023-03-23T06:09:50;27.0;;;25.0;;
53939;SDS011;39850;43.324;21.916;2023-03-23T06:14:26;31.0;;;28.0;;
53939;SDS011;39850;43.324;21.916;2023-03-23T06:19:03;31.0;;;28.0;;
53939;SDS011;39850;43.324;21.916;2023-03-23T06:23:40;28.0;;;26.0;;
53939;SDS011;39850;43.324;21.916;2023-03-23T06:28:17;28.0;;;26.0;;
53939;SDS011;39850;43.324;21.916;2023-03-23T06:32:53;32.0;;;29.0;;
53939;SDS011;39850;43.324;21.916;2023-03-23T06:37:30;32.0;;;29.0;;
53939;SDS011;39850;43.324;21.916;2023-03-23T06:42:11;32.0;;;29.0;;
53939;SDS011;39850;43.324;21.916;2023-03-23T06:46:48;28.0;;;26.0;;
53939;SDS011;39850;43.324;21.916;2023-03-23T06:51:25;28.0;;;26.0;;
53939;SDS011;39850;43.324;21.916;2023-03-23T07:23:42;18.0;;;18.0;;
53939;SDS011;39850;43.324;21.916;2023-03-23T07:28:19;18.0;;;18.0;;
53939;SDS011;39850;43.324;21.916;2023-03-23T07:32:57;18.0;;;18.0;;
53939;SDS011;39850;43.324;21.916;2023-03-23T07:37:35;18.0;;;18.0;;
53939;SDS011;39850;43.324;21.916;2023-03-23T07:42:12;18.0;;;18.0;;
53939;SDS011;39850;43.324;21.916;2023-03-23T07:46:49;18.0;;;18.0;;
53939;SDS011;39850;43.324;21.916;2023-03-23T07:51:26;18.0;;;18.0;;
53939;SDS011;39850;43.324;21.916;2023-03-23T07:56:05;17.0;;;17.0;;
53939;SDS011;39850;43.324;21.916;2023-03-23T08:00:44;17.0;;;17.0;;
53939;SDS011;39850;43.324;21.916;2023-03-23T08:47:05;14.0;;;14.0;;
53939;SDS011;39850;43.324;21.916;2023-03-23T08:51:42;14.0;;;14.0;;
53939;SDS011;39850;43.324;21.916;2023-03-23T08:56:18;14.0;;;14.0;;
53939;SDS011;39850;43.324;21.916;2023-03-23T09:00:55;14.0;;;14.0;;
53939;SDS011;39850;43.324;21.916;2023-03-23T09:05:31;14.0;;;14.0;;
53939;SDS011;39850;43.324;21.916;2023-03-23T09:10:11;14.0;;;14.0;;
53939;SDS011;39850;43.324;21.916;2023-03-23T09:14:50;16.0;;;16.0;;
53939;SDS011;39850;43.324;21.916;2023-03-23T09:19:27;16.0;;;16.0;;
53939;SDS011;39850;43.324;21.916;2023-03-23T09:24:05;17.0;;;17.0;;
53939;SDS011;39850;43.324;21.916;2023-03-23T09:28:42;17.0;;;17.0;;
53939;SDS011;39850;43.324;21.916;2023-03-23T09:33:19;17.0;;;17.0;;
53939;SDS011;39850;43.324;21.916;2023-03-23T10:08:19;13.0;;;13.0;;
53939;SDS011;39850;43.324;21.916;2023-03-23T10:13:50;14.0;;;14.0;;
53939;SDS011;39850;43.324;21.916;2023-03-23T10:18:58;14.0;;;14.0;;
53939;SDS011;39850;43.324;21.916;2023-03-23T10:24:02;14.0;;;13.0;;
53939;SDS011;39850;43.324;21.916;2023-03-23T10:28:54;14.0;;;13.0;;
53939;SDS011;39850;43.324;21.916;2023-03-23T10:33:47;14.0;;;14.0;;
53939;SDS011;39850;43.324;21.916;2023-03-23T10:38:43;14.0;;;14.0;;
53939;SDS011;39850;43.324;21.916;2023-03-23T10:43:29;14.0;;;14.0;;
53939;SDS011;39850;43.324;21.916;2023-03-23T10:48:27;14.0;;;13.0;;
53939;SDS011;39850;43.324;21.916;2023-03-23T10:53:31;14.0;;;13.0;;
53939;SDS011;39850;43.324;21.916;2023-03-23T11:27:28;12.0;;;12.0;;
53939;SDS011;39850;43.324;21.916;2023-03-23T11:32:14;12.0;;;12.0;;
53939;SDS011;39850;43.324;21.916;2023-03-23T11:37:03;12.0;;;11.0;;
53939;SDS011;39850;43.324;21.916;2023-03-23T11:41:45;12.0;;;11.0;;
53939;SDS011;39850;43.324;21.916;2023-03-23T11:46:49;11.0;;;10.0;;
53939;SDS011;39850;43.324;21.916;2023-03-23T11:51:48;11.0;;;10.0;;
53939;SDS011;39850;43.324;21.916;2023-03-23T11:56:37;10.0;;;10.0;;
53939;SDS011;39850;43.324;21.916;2023-03-23T12:01:43;10.0;;;10.0;;
53939;SDS011;39850;43.324;21.916;2023-03-23T12:06:45;10.0;;;9.0;;
53939;SDS011;39850;43.324;21.916;2023-03-23T12:11:55;10.0;;;9.0;;
53939;SDS011;39850;43.324;21.916;2023-03-23T12:47:54;12.0;;;10.0;;
53939;SDS011;39850;43.324;21.916;2023-03-23T12:52:56;12.0;;;10.0;;
53939;SDS011;39850;43.324;21.916;2023-03-23T12:57:49;10.0;;;10.0;;
53939;SDS011;39850;43.324;21.916;2023-03-23T13:02:51;10.0;;;10.0;;
53939;SDS011;39850;43.324;21.916;2023-03-23T13:07:56;12.0;;;10.0;;
53939;SDS011;39850;43.324;21.916;2023-03-23T13:12:49;12.0;;;10.0;;
53939;SDS011;39850;43.324;21.916;2023-03-23T13:17:49;13.0;;;14.0;;
53939;SDS011;39850;43.324;21.916;2023-03-23T13:22:58;13.0;;;14.0;;
53939;SDS011;39850;43.324;21.916;2023-03-23T13:27:58;17.0;;;18.0;;
53939;SDS011;39850;43.324;21.916;2023-03-23T13:32:40;17.0;;;18.0;;
53939;SDS011;39850;43.324;21.916;2023-03-23T14:07:18;9.0;;;8.0;;
53939;SDS011;39850;43.324;21.916;2023-03-23T14:12:01;9.0;;;8.0;;
53939;SDS011;39850;43.324;21.916;2023-03-23T14:16:48;10.0;;;8.0;;
53939;SDS011;39850;43.324;21.916;2023-03-23T14:21:41;10.0;;;8.0;;
53939;SDS011;39850;43.324;21.916;2023-03-23T14:26:29;9.0;;;8.0;;
53939;SDS011;39850;43.324;21.916;2023-03-23T14:31:23;9.0;;;8.0;;
53939;SDS011;39850;43.324;21.916;2023-03-23T14:36:05;10.0;;;8.0;;
53939;SDS011;39850;43.324;21.916;2023-03-23T14:40:44;10.0;;;8.0;;
53939;SDS011;39850;43.324;21.916;2023-03-23T14:45:25;9.0;;;8.0;;
53939;SDS011;39850;43.324;21.916;2023-03-23T14:50:26;9.0;;;8.0;;
53939;SDS011;39850;43.324;21.916;2023-03-23T15:28:30;16.0;;;10.0;;
53939;SDS011;39850;43.324;21.916;2023-03-23T15:33:13;16.0;;;10.0;;
53939;SDS011;39850;43.324;21.916;2023-03-23T15:38:00;13.0;;;9.0;;
53939;SDS011;39850;43.324;21.916;2023-03-23T15:42:39;13.0;;;9.0;;
53939;SDS011;39850;43.324;21.916;2023-03-23T15:47:19;13.0;;;9.0;;
53939;SDS011;39850;43.324;21.916;2023-03-23T15:51:56;13.0;;;9.0;;
53939;SDS011;39850;43.324;21.916;2023-03-23T15:56:32;10.0;;;8.0;;
53939;SDS011;39850;43.324;21.916;2023-03-23T16:01:20;10.0;;;8.0;;
53939;SDS011;39850;43.324;21.916;2023-03-23T16:47:56;11.0;;;11.0;;
53939;SDS011;39850;43.324;21.916;2023-03-23T16:52:34;11.0;;;11.0;;
53939;SDS011;39850;43.324;21.916;2023-03-23T16:57:11;14.0;;;14.0;;
53939;SDS011;39850;43.324;21.916;2023-03-23T17:01:48;14.0;;;14.0;;
53939;SDS011;39850;43.324;21.916;2023-03-23T17:06:25;17.0;;;16.0;;
53939;SDS011;39850;43.324;21.916;2023-03-23T17:11:02;17.0;;;16.0;;
53939;SDS011;39850;43.324;21.916;2023-03-23T17:15:45;17.0;;;16.0;;
53939;SDS011;39850;43.324;21.916;2023-03-23T17:20:23;17.0;;;16.0;;
53939;SDS011;39850;43.324;21.916;2023-03-23T17:24:59;17.0;;;16.0;;
53939;SDS011;39850;43.324;21.916;2023-03-23T17:29:36;17.0;;;16.0;;
53939;SDS011;39850;43.324;21.916;2023-03-23T17:34:12;17.0;;;16.0;;
53939;SDS011;39850;43.324;21.916;2023-03-23T18:06:33;18.0;;;18.0;;
53939;SDS011;39850;43.324;21.916;2023-03-23T18:11:10;18.0;;;18.0;;
53939;SDS011;39850;43.324;21.916;2023-03-23T18:15:48;19.0;;;18.0;;
53939;SDS011;39850;43.324;21.916;2023-03-23T18:20:26;19.0;;;18.0;;
53939;SDS011;39850;43.324;21.916;2023-03-23T18:25:05;19.0;;;18.0;;
53939;SDS011;39850;43.324;21.916;2023-03-23T18:29:43;20.0;;;18.0;;
53939;SDS011;39850;43.324;21.916;2023-03-23T18:34:20;20.0;;;18.0;;
53939;SDS011;39850;43.324;21.916;2023-03-23T18:38:57;20.0;;;18.0;;
53939;SDS011;39850;43.324;21.916;2023-03-23T18:43:37;20.0;;;18.0;;
53939;SDS011;39850;43.324;21.916;2023-03-23T18:48:15;20.0;;;18.0;;
53939;SDS011;39850;43.324;21.916;2023-03-23T18:52:51;20.0;;;18.0;;
53939;SDS011;39850;43.324;21.916;2023-03-23T19:29:54;18.0;;;18.0;;
53939;SDS011;39850;43.324;21.916;2023-03-23T19:34:31;18.0;;;18.0;;
53939;SDS011;39850;43.324;21.916;2023-03-23T19:39:08;20.0;;;19.0;;
53939;SDS011;39850;43.324;21.916;2023-03-23T19:43:44;20.0;;;19.0;;
53939;SDS011;39850;43.324;21.916;2023-03-23T19:48:22;22.0;;;20.0;;
53939;SDS011;39850;43.324;21.916;2023-03-23T19:52:58;22.0;;;20.0;;
53939;SDS011;39850;43.324;21.916;2023-03-23T19:57:35;22.0;;;21.0;;
53939;SDS011;39850;43.324;21.916;2023-03-23T20:02:13;22.0;;;21.0;;
53939;SDS011;39850;43.324;21.916;2023-03-23T20:06:50;23.0;;;22.0;;
53939;SDS011;39850;43.324;21.916;2023-03-23T20:11:29;23.0;;;22.0;;
53939;SDS011;39850;43.324;21.916;2023-03-23T20:49:56;24.0;;;23.0;;
53939;SDS011;39850;43.324;21.916;2023-03-23T20:54:33;24.0;;;23.0;;
53939;SDS011;39850;43.324;21.916;2023-03-23T20:59:14;24.0;;;22.0;;
53939;SDS011;39850;43.324;21.916;2023-03-23T21:03:53;24.0;;;22.0;;
53939;SDS011;39850;43.324;21.916;2023-03-23T21:08:30;23.0;;;22.0;;
53939;SDS011;39850;43.324;21.916;2023-03-23T21:13:09;23.0;;;22.0;;
53939;SDS011;39850;43.324;21.916;2023-03-23T21:17:46;23.0;;;22.0;;
53939;SDS011;39850;43.324;21.916;2023-03-23T21:22:23;23.0;;;22.0;;
53939;SDS011;39850;43.324;21.916;2023-03-23T21:27:01;23.0;;;22.0;;
53939;SDS011;39850;43.324;21.916;2023-03-23T21:31:38;23.0;;;22.0;;
53939;SDS011;39850;43.324;21.916;2023-03-23T22:08:49;23.0;;;22.0;;
53939;SDS011;39850;43.324;21.916;2023-03-23T22:13:27;23.0;;;22.0;;
53939;SDS011;39850;43.324;21.916;2023-03-23T22:18:04;23.0;;;22.0;;
53939;SDS011;39850;43.324;21.916;2023-03-23T22:22:41;23.0;;;22.0;;
53939;SDS011;39850;43.324;21.916;2023-03-23T22:27:18;25.0;;;24.0;;
53939;SDS011;39850;43.324;21.916;2023-03-23T22:31:54;25.0;;;24.0;;
53939;SDS011;39850;43.324;21.916;2023-03-23T22:36:32;27.0;;;25.0;;
53939;SDS011;39850;43.324;21.916;2023-03-23T22:41:22;27.0;;;25.0;;
53939;SDS011;39850;43.324;21.916;2023-03-23T22:46:00;27.0;;;25.0;;
53939;SDS011;39850;43.324;21.916;2023-03-23T22:50:36;27.0;;;25.0;;
53939;SDS011;39850;43.324;21.916;2023-03-23T22:55:14;27.0;;;25.0;;
53939;SDS011;39850;43.324;21.916;2023-03-23T23:27:41;37.0;;;32.0;;
53939;SDS011;39850;43.324;21.916;2023-03-23T23:32:18;37.0;;;32.0;;
53939;SDS011;39850;43.324;21.916;2023-03-23T23:36:55;38.0;;;32.0;;
53939;SDS011;39850;43.324;21.916;2023-03-23T23:41:34;38.0;;;32.0;;
53939;SDS011;39850;43.324;21.916;2023-03-23T23:46:11;38.0;;;32.0;;
53939;SDS011;39850;43.324;21.916;2023-03-23T23:50:50;37.0;;;32.0;;
53939;SDS011;39850;43.324;21.916;2023-03-23T23:55:27;37.0;;;32.0;;
